sensor_id;sensor_type;location;lat;lon;timestamp;temperature;humidity
26655;DHT22;14278;50.784;4.630;2023-07-22T00:01:03;15.30;99.90
26655;DHT22;14278;50.784;4.630;2023-07-22T00:03:28;15.50;99.90
26655;DHT22;14278;50.784;4.630;2023-07-22T00:06:09;15.20;99.90
26655;DHT22;14278;50.784;4.630;2023-07-22T00:08:36;15.30;99.90
26655;DHT22;14278;50.784;4.630;2023-07-22T00:11:03;15.10;99.90
26655;DHT22;14278;50.784;4.630;2023-07-22T00:13:29;15.10;99.90
26655;DHT22;14278;50.784;4.630;2023-07-22T00:15:56;15.30;99.90
26655;DHT22;14278;50.784;4.630;2023-07-22T00:18:23;15.40;99.90
26655;DHT22;14278;50.784;4.630;2023-07-22T00:20:49;15.50;99.90
26655;DHT22;14278;50.784;4.630;2023-07-22T00:23:17;15.50;99.90
26655;DHT22;14278;50.784;4.630;2023-07-22T00:25:43;15.60;99.90
26655;DHT22;14278;50.784;4.630;2023-07-22T00:28:09;15.10;99.90
26655;DHT22;14278;50.784;4.630;2023-07-22T00:30:35;14.90;99.90
26655;DHT22;14278;50.784;4.630;2023-07-22T00:33:01;15.00;99.90
26655;DHT22;14278;50.784;4.630;2023-07-22T00:35:27;15.10;99.90
26655;DHT22;14278;50.784;4.630;2023-07-22T00:37:53;15.40;99.90
26655;DHT22;14278;50.784;4.630;2023-07-22T00:40:19;15.40;99.90
26655;DHT22;14278;50.784;4.630;2023-07-22T00:42:45;15.40;99.90
26655;DHT22;14278;50.784;4.630;2023-07-22T00:45:11;15.30;99.90
26655;DHT22;14278;50.784;4.630;2023-07-22T00:47:37;15.40;99.90
26655;DHT22;14278;50.784;4.630;2023-07-22T00:50:04;15.40;99.90
26655;DHT22;14278;50.784;4.630;2023-07-22T00:52:32;15.30;99.90
26655;DHT22;14278;50.784;4.630;2023-07-22T00:54:58;15.20;99.90
26655;DHT22;14278;50.784;4.630;2023-07-22T00:57:24;15.30;99.90
26655;DHT22;14278;50.784;4.630;2023-07-22T00:59:51;15.30;99.90
26655;DHT22;14278;50.784;4.630;2023-07-22T01:02:18;15.30;99.90
26655;DHT22;14278;50.784;4.630;2023-07-22T01:04:44;15.20;99.90
26655;DHT22;14278;50.784;4.630;2023-07-22T01:07:10;15.30;99.90
26655;DHT22;14278;50.784;4.630;2023-07-22T01:09:40;15.20;99.90
26655;DHT22;14278;50.784;4.630;2023-07-22T01:12:07;15.20;99.90
26655;DHT22;14278;50.784;4.630;2023-07-22T01:14:38;15.40;99.90
26655;DHT22;14278;50.784;4.630;2023-07-22T01:17:05;15.40;99.90
26655;DHT22;14278;50.784;4.630;2023-07-22T01:19:33;15.10;99.90
26655;DHT22;14278;50.784;4.630;2023-07-22T01:22:03;14.90;99.90
26655;DHT22;14278;50.784;4.630;2023-07-22T01:24:30;14.90;99.90
26655;DHT22;14278;50.784;4.630;2023-07-22T01:26:56;15.00;99.90
26655;DHT22;14278;50.784;4.630;2023-07-22T01:29:23;15.10;99.90
26655;DHT22;14278;50.784;4.630;2023-07-22T01:31:51;15.30;99.90
26655;DHT22;14278;50.784;4.630;2023-07-22T01:34:17;15.40;99.90
26655;DHT22;14278;50.784;4.630;2023-07-22T01:36:44;15.30;99.90
26655;DHT22;14278;50.784;4.630;2023-07-22T01:39:10;15.20;99.90
26655;DHT22;14278;50.784;4.630;2023-07-22T01:41:39;15.40;99.90
26655;DHT22;14278;50.784;4.630;2023-07-22T01:44:05;15.30;99.90
26655;DHT22;14278;50.784;4.630;2023-07-22T01:46:31;15.30;99.90
26655;DHT22;14278;50.784;4.630;2023-07-22T01:48:57;15.20;99.90
26655;DHT22;14278;50.784;4.630;2023-07-22T01:51:23;15.00;99.90
26655;DHT22;14278;50.784;4.630;2023-07-22T01:53:49;15.00;99.90
26655;DHT22;14278;50.784;4.630;2023-07-22T01:56:15;15.10;99.90
26655;DHT22;14278;50.784;4.630;2023-07-22T01:58:42;15.20;99.90
26655;DHT22;14278;50.784;4.630;2023-07-22T02:01:08;15.10;99.90
26655;DHT22;14278;50.784;4.630;2023-07-22T02:03:34;15.20;99.90
26655;DHT22;14278;50.784;4.630;2023-07-22T02:06:06;15.00;99.90
26655;DHT22;14278;50.784;4.630;2023-07-22T02:08:32;15.10;99.90
26655;DHT22;14278;50.784;4.630;2023-07-22T02:11:07;15.00;99.90
26655;DHT22;14278;50.784;4.630;2023-07-22T02:13:35;15.00;99.90
26655;DHT22;14278;50.784;4.630;2023-07-22T02:16:01;14.90;99.90
26655;DHT22;14278;50.784;4.630;2023-07-22T02:18:27;14.90;99.90
26655;DHT22;14278;50.784;4.630;2023-07-22T02:20:54;14.90;99.90
26655;DHT22;14278;50.784;4.630;2023-07-22T02:23:20;14.80;99.90
26655;DHT22;14278;50.784;4.630;2023-07-22T02:25:53;14.80;99.90
26655;DHT22;14278;50.784;4.630;2023-07-22T02:28:20;14.80;99.90
26655;DHT22;14278;50.784;4.630;2023-07-22T02:31:01;14.90;99.90
26655;DHT22;14278;50.784;4.630;2023-07-22T02:33:28;14.90;99.90
26655;DHT22;14278;50.784;4.630;2023-07-22T02:35:53;14.80;99.90
26655;DHT22;14278;50.784;4.630;2023-07-22T02:38:20;14.70;99.90
26655;DHT22;14278;50.784;4.630;2023-07-22T02:40:46;14.70;99.90
26655;DHT22;14278;50.784;4.630;2023-07-22T02:43:12;14.70;99.90
26655;DHT22;14278;50.784;4.630;2023-07-22T02:45:38;14.70;99.90
26655;DHT22;14278;50.784;4.630;2023-07-22T02:48:04;14.70;99.90
26655;DHT22;14278;50.784;4.630;2023-07-22T02:50:31;14.70;99.90
26655;DHT22;14278;50.784;4.630;2023-07-22T02:52:56;14.80;99.90
26655;DHT22;14278;50.784;4.630;2023-07-22T02:55:22;14.90;99.90
26655;DHT22;14278;50.784;4.630;2023-07-22T02:57:48;14.80;99.90
26655;DHT22;14278;50.784;4.630;2023-07-22T03:00:16;14.80;99.90
26655;DHT22;14278;50.784;4.630;2023-07-22T03:02:53;14.70;99.90
26655;DHT22;14278;50.784;4.630;2023-07-22T03:05:20;14.50;99.90
26655;DHT22;14278;50.784;4.630;2023-07-22T03:07:46;14.40;99.90
26655;DHT22;14278;50.784;4.630;2023-07-22T03:10:12;14.40;99.90
26655;DHT22;14278;50.784;4.630;2023-07-22T03:12:38;14.40;99.90
26655;DHT22;14278;50.784;4.630;2023-07-22T03:15:05;14.40;99.90
26655;DHT22;14278;50.784;4.630;2023-07-22T03:17:34;14.60;99.90
26655;DHT22;14278;50.784;4.630;2023-07-22T03:20:01;14.50;99.90
26655;DHT22;14278;50.784;4.630;2023-07-22T03:22:26;14.60;99.90
26655;DHT22;14278;50.784;4.630;2023-07-22T03:24:52;14.50;99.90
26655;DHT22;14278;50.784;4.630;2023-07-22T03:27:18;14.50;99.90
26655;DHT22;14278;50.784;4.630;2023-07-22T03:29:44;14.60;99.90
26655;DHT22;14278;50.784;4.630;2023-07-22T03:32:10;14.70;99.90
26655;DHT22;14278;50.784;4.630;2023-07-22T03:34:36;14.70;99.90
26655;DHT22;14278;50.784;4.630;2023-07-22T03:37:01;14.70;99.90
26655;DHT22;14278;50.784;4.630;2023-07-22T03:39:28;14.70;99.90
26655;DHT22;14278;50.784;4.630;2023-07-22T03:41:54;14.70;99.90
26655;DHT22;14278;50.784;4.630;2023-07-22T03:44:19;14.50;99.90
26655;DHT22;14278;50.784;4.630;2023-07-22T03:46:45;14.30;99.90
26655;DHT22;14278;50.784;4.630;2023-07-22T03:49:11;14.50;99.90
26655;DHT22;14278;50.784;4.630;2023-07-22T03:51:37;14.50;99.90
26655;DHT22;14278;50.784;4.630;2023-07-22T03:54:03;14.50;99.90
26655;DHT22;14278;50.784;4.630;2023-07-22T03:56:29;14.40;99.90
26655;DHT22;14278;50.784;4.630;2023-07-22T03:58:54;14.50;99.90
26655;DHT22;14278;50.784;4.630;2023-07-22T04:01:20;14.50;99.90
26655;DHT22;14278;50.784;4.630;2023-07-22T04:03:46;14.40;99.90
26655;DHT22;14278;50.784;4.630;2023-07-22T04:06:13;14.60;99.90
26655;DHT22;14278;50.784;4.630;2023-07-22T04:08:38;14.50;99.90
26655;DHT22;14278;50.784;4.630;2023-07-22T04:11:04;14.50;99.90
26655;DHT22;14278;50.784;4.630;2023-07-22T04:13:30;14.60;99.90
26655;DHT22;14278;50.784;4.630;2023-07-22T04:15:56;14.70;99.90
26655;DHT22;14278;50.784;4.630;2023-07-22T04:18:22;14.70;99.90
26655;DHT22;14278;50.784;4.630;2023-07-22T04:20:48;14.80;99.90
26655;DHT22;14278;50.784;4.630;2023-07-22T04:23:20;15.00;99.90
26655;DHT22;14278;50.784;4.630;2023-07-22T04:25:46;15.10;99.90
26655;DHT22;14278;50.784;4.630;2023-07-22T04:28:12;15.10;99.90
26655;DHT22;14278;50.784;4.630;2023-07-22T04:30:39;15.00;99.90
26655;DHT22;14278;50.784;4.630;2023-07-22T04:33:05;15.10;99.90
26655;DHT22;14278;50.784;4.630;2023-07-22T04:35:32;15.10;99.90
26655;DHT22;14278;50.784;4.630;2023-07-22T04:37:58;15.30;99.90
26655;DHT22;14278;50.784;4.630;2023-07-22T04:40:25;15.50;99.90
26655;DHT22;14278;50.784;4.630;2023-07-22T04:42:51;15.60;99.90
26655;DHT22;14278;50.784;4.630;2023-07-22T04:45:17;15.60;99.90
26655;DHT22;14278;50.784;4.630;2023-07-22T04:47:46;15.60;99.90
26655;DHT22;14278;50.784;4.630;2023-07-22T04:50:14;15.70;99.90
26655;DHT22;14278;50.784;4.630;2023-07-22T04:52:42;16.00;99.90
26655;DHT22;14278;50.784;4.630;2023-07-22T04:55:09;16.10;99.90
26655;DHT22;14278;50.784;4.630;2023-07-22T04:57:35;16.20;99.90
26655;DHT22;14278;50.784;4.630;2023-07-22T05:00:02;16.40;99.90
26655;DHT22;14278;50.784;4.630;2023-07-22T05:02:32;16.50;99.90
26655;DHT22;14278;50.784;4.630;2023-07-22T05:04:58;16.20;99.90
26655;DHT22;14278;50.784;4.630;2023-07-22T05:07:24;16.20;99.90
26655;DHT22;14278;50.784;4.630;2023-07-22T05:09:50;16.40;99.90
26655;DHT22;14278;50.784;4.630;2023-07-22T05:12:17;16.50;99.90
26655;DHT22;14278;50.784;4.630;2023-07-22T05:14:45;16.50;99.90
26655;DHT22;14278;50.784;4.630;2023-07-22T05:17:14;16.40;99.90
26655;DHT22;14278;50.784;4.630;2023-07-22T05:19:40;16.50;99.90
26655;DHT22;14278;50.784;4.630;2023-07-22T05:22:07;16.50;99.90
26655;DHT22;14278;50.784;4.630;2023-07-22T05:24:33;16.70;99.90
26655;DHT22;14278;50.784;4.630;2023-07-22T05:26:59;16.90;99.90
26655;DHT22;14278;50.784;4.630;2023-07-22T05:29:25;17.10;99.90
26655;DHT22;14278;50.784;4.630;2023-07-22T05:31:51;17.20;99.90
26655;DHT22;14278;50.784;4.630;2023-07-22T05:34:17;17.10;99.90
26655;DHT22;14278;50.784;4.630;2023-07-22T05:36:43;17.00;99.90
26655;DHT22;14278;50.784;4.630;2023-07-22T05:39:08;16.90;99.90
26655;DHT22;14278;50.784;4.630;2023-07-22T05:41:35;16.90;99.90
26655;DHT22;14278;50.784;4.630;2023-07-22T05:44:01;17.10;99.90
26655;DHT22;14278;50.784;4.630;2023-07-22T05:46:27;17.40;99.90
26655;DHT22;14278;50.784;4.630;2023-07-22T05:48:53;17.80;99.90
26655;DHT22;14278;50.784;4.630;2023-07-22T05:51:20;17.70;99.90
26655;DHT22;14278;50.784;4.630;2023-07-22T05:53:46;18.10;99.90
26655;DHT22;14278;50.784;4.630;2023-07-22T05:56:12;17.90;99.90
26655;DHT22;14278;50.784;4.630;2023-07-22T05:58:37;18.00;99.90
26655;DHT22;14278;50.784;4.630;2023-07-22T06:01:03;18.20;99.90
26655;DHT22;14278;50.784;4.630;2023-07-22T06:03:29;18.30;99.90
26655;DHT22;14278;50.784;4.630;2023-07-22T06:05:56;18.20;99.90
26655;DHT22;14278;50.784;4.630;2023-07-22T06:08:21;18.30;99.90
26655;DHT22;14278;50.784;4.630;2023-07-22T06:10:47;18.30;99.90
26655;DHT22;14278;50.784;4.630;2023-07-22T06:13:13;17.80;99.90
26655;DHT22;14278;50.784;4.630;2023-07-22T06:15:38;18.00;99.90
26655;DHT22;14278;50.784;4.630;2023-07-22T06:18:05;18.00;99.90
26655;DHT22;14278;50.784;4.630;2023-07-22T06:20:34;18.20;99.90
26655;DHT22;14278;50.784;4.630;2023-07-22T06:23:02;18.30;99.90
26655;DHT22;14278;50.784;4.630;2023-07-22T06:25:27;18.20;99.90
26655;DHT22;14278;50.784;4.630;2023-07-22T06:27:53;18.30;99.90
26655;DHT22;14278;50.784;4.630;2023-07-22T06:30:20;18.10;99.90
26655;DHT22;14278;50.784;4.630;2023-07-22T06:32:46;18.20;99.90
26655;DHT22;14278;50.784;4.630;2023-07-22T06:35:12;18.30;99.90
26655;DHT22;14278;50.784;4.630;2023-07-22T06:37:38;18.60;99.90
26655;DHT22;14278;50.784;4.630;2023-07-22T06:40:05;18.90;99.90
26655;DHT22;14278;50.784;4.630;2023-07-22T06:42:31;18.60;99.90
26655;DHT22;14278;50.784;4.630;2023-07-22T06:44:57;18.60;99.90
26655;DHT22;14278;50.784;4.630;2023-07-22T06:47:23;18.70;99.90
26655;DHT22;14278;50.784;4.630;2023-07-22T06:49:49;18.60;99.90
26655;DHT22;14278;50.784;4.630;2023-07-22T06:52:16;18.90;99.90
26655;DHT22;14278;50.784;4.630;2023-07-22T06:54:42;19.10;99.90
26655;DHT22;14278;50.784;4.630;2023-07-22T06:57:08;19.30;99.90
26655;DHT22;14278;50.784;4.630;2023-07-22T06:59:34;19.50;99.90
26655;DHT22;14278;50.784;4.630;2023-07-22T07:02:00;19.40;99.90
26655;DHT22;14278;50.784;4.630;2023-07-22T07:04:26;19.40;99.90
26655;DHT22;14278;50.784;4.630;2023-07-22T07:06:53;18.90;99.90
26655;DHT22;14278;50.784;4.630;2023-07-22T07:09:18;18.90;99.90
26655;DHT22;14278;50.784;4.630;2023-07-22T07:11:44;18.80;99.90
26655;DHT22;14278;50.784;4.630;2023-07-22T07:14:10;19.00;99.90
26655;DHT22;14278;50.784;4.630;2023-07-22T07:16:36;18.70;99.90
26655;DHT22;14278;50.784;4.630;2023-07-22T07:19:02;18.90;99.90
26655;DHT22;14278;50.784;4.630;2023-07-22T07:21:28;19.40;99.90
26655;DHT22;14278;50.784;4.630;2023-07-22T07:23:54;19.80;99.90
26655;DHT22;14278;50.784;4.630;2023-07-22T07:26:21;20.60;99.90
26655;DHT22;14278;50.784;4.630;2023-07-22T07:28:48;20.90;99.90
26655;DHT22;14278;50.784;4.630;2023-07-22T07:31:15;20.80;99.90
26655;DHT22;14278;50.784;4.630;2023-07-22T07:33:40;20.80;99.90
26655;DHT22;14278;50.784;4.630;2023-07-22T07:36:06;20.70;99.90
26655;DHT22;14278;50.784;4.630;2023-07-22T07:38:32;20.30;99.90
26655;DHT22;14278;50.784;4.630;2023-07-22T07:41:00;20.20;99.90
26655;DHT22;14278;50.784;4.630;2023-07-22T07:43:26;19.90;99.90
26655;DHT22;14278;50.784;4.630;2023-07-22T07:46:16;19.90;99.90
26655;DHT22;14278;50.784;4.630;2023-07-22T07:48:55;20.70;99.90
26655;DHT22;14278;50.784;4.630;2023-07-22T07:51:23;21.40;99.90
26655;DHT22;14278;50.784;4.630;2023-07-22T07:53:49;21.90;99.90
26655;DHT22;14278;50.784;4.630;2023-07-22T07:56:17;22.00;99.90
26655;DHT22;14278;50.784;4.630;2023-07-22T07:58:44;22.20;99.90
26655;DHT22;14278;50.784;4.630;2023-07-22T08:01:10;22.30;99.90
26655;DHT22;14278;50.784;4.630;2023-07-22T08:03:37;22.60;99.90
26655;DHT22;14278;50.784;4.630;2023-07-22T08:06:04;22.50;99.90
26655;DHT22;14278;50.784;4.630;2023-07-22T08:08:30;22.60;99.90
26655;DHT22;14278;50.784;4.630;2023-07-22T08:11:08;22.50;99.90
26655;DHT22;14278;50.784;4.630;2023-07-22T08:13:34;22.40;99.90
26655;DHT22;14278;50.784;4.630;2023-07-22T08:16:02;22.90;99.90
26655;DHT22;14278;50.784;4.630;2023-07-22T08:18:29;23.40;99.90
26655;DHT22;14278;50.784;4.630;2023-07-22T08:20:55;23.90;99.90
26655;DHT22;14278;50.784;4.630;2023-07-22T08:23:22;24.30;99.90
26655;DHT22;14278;50.784;4.630;2023-07-22T08:25:48;24.30;99.90
26655;DHT22;14278;50.784;4.630;2023-07-22T08:28:14;23.70;99.90
26655;DHT22;14278;50.784;4.630;2023-07-22T08:30:40;23.80;99.90
26655;DHT22;14278;50.784;4.630;2023-07-22T08:33:08;23.20;99.90
26655;DHT22;14278;50.784;4.630;2023-07-22T08:35:35;23.00;99.90
26655;DHT22;14278;50.784;4.630;2023-07-22T08:38:02;23.10;99.90
26655;DHT22;14278;50.784;4.630;2023-07-22T08:40:39;22.60;99.90
26655;DHT22;14278;50.784;4.630;2023-07-22T08:43:10;22.00;99.90
26655;DHT22;14278;50.784;4.630;2023-07-22T08:45:38;22.40;99.90
26655;DHT22;14278;50.784;4.630;2023-07-22T08:48:09;22.20;99.90
26655;DHT22;14278;50.784;4.630;2023-07-22T08:53:17;22.10;99.90
26655;DHT22;14278;50.784;4.630;2023-07-22T08:55:45;22.40;99.90
26655;DHT22;14278;50.784;4.630;2023-07-22T08:58:11;22.60;99.90
26655;DHT22;14278;50.784;4.630;2023-07-22T09:00:38;23.40;99.90
26655;DHT22;14278;50.784;4.630;2023-07-22T09:03:05;23.60;99.90
26655;DHT22;14278;50.784;4.630;2023-07-22T09:05:36;23.50;99.90
26655;DHT22;14278;50.784;4.630;2023-07-22T09:08:06;23.00;99.90
26655;DHT22;14278;50.784;4.630;2023-07-22T09:10:33;23.10;99.90
26655;DHT22;14278;50.784;4.630;2023-07-22T09:13:02;22.40;99.90
26655;DHT22;14278;50.784;4.630;2023-07-22T09:15:29;22.70;99.90
26655;DHT22;14278;50.784;4.630;2023-07-22T09:17:55;23.20;99.90
26655;DHT22;14278;50.784;4.630;2023-07-22T09:20:21;23.70;99.90
26655;DHT22;14278;50.784;4.630;2023-07-22T09:22:50;23.60;99.90
26655;DHT22;14278;50.784;4.630;2023-07-22T09:25:21;24.40;99.90
26655;DHT22;14278;50.784;4.630;2023-07-22T09:27:50;24.90;99.90
26655;DHT22;14278;50.784;4.630;2023-07-22T09:30:23;24.80;99.90
26655;DHT22;14278;50.784;4.630;2023-07-22T09:32:50;24.90;99.90
26655;DHT22;14278;50.784;4.630;2023-07-22T09:35:17;25.30;99.90
26655;DHT22;14278;50.784;4.630;2023-07-22T09:37:44;25.00;99.90
26655;DHT22;14278;50.784;4.630;2023-07-22T09:40:28;24.90;99.90
26655;DHT22;14278;50.784;4.630;2023-07-22T09:43:00;25.00;99.90
26655;DHT22;14278;50.784;4.630;2023-07-22T09:45:29;25.60;99.90
26655;DHT22;14278;50.784;4.630;2023-07-22T09:47:56;26.00;99.90
26655;DHT22;14278;50.784;4.630;2023-07-22T09:50:25;25.40;99.90
26655;DHT22;14278;50.784;4.630;2023-07-22T09:52:55;24.50;99.90
26655;DHT22;14278;50.784;4.630;2023-07-22T09:55:25;24.00;99.90
26655;DHT22;14278;50.784;4.630;2023-07-22T09:57:54;23.90;99.90
26655;DHT22;14278;50.784;4.630;2023-07-22T10:00:20;24.10;99.90
26655;DHT22;14278;50.784;4.630;2023-07-22T10:02:49;23.90;99.90
26655;DHT22;14278;50.784;4.630;2023-07-22T10:05:19;24.10;99.90
26655;DHT22;14278;50.784;4.630;2023-07-22T10:07:53;23.40;99.90
26655;DHT22;14278;50.784;4.630;2023-07-22T10:10:25;23.00;99.90
26655;DHT22;14278;50.784;4.630;2023-07-22T10:12:53;23.00;99.90
26655;DHT22;14278;50.784;4.630;2023-07-22T10:15:19;23.30;99.90
26655;DHT22;14278;50.784;4.630;2023-07-22T10:17:45;23.20;99.90
26655;DHT22;14278;50.784;4.630;2023-07-22T10:20:13;23.70;99.90
26655;DHT22;14278;50.784;4.630;2023-07-22T10:22:43;23.90;99.90
26655;DHT22;14278;50.784;4.630;2023-07-22T10:25:15;24.00;99.90
26655;DHT22;14278;50.784;4.630;2023-07-22T10:27:41;24.30;99.90
26655;DHT22;14278;50.784;4.630;2023-07-22T10:30:09;25.10;99.90
26655;DHT22;14278;50.784;4.630;2023-07-22T10:35:03;25.90;99.90
26655;DHT22;14278;50.784;4.630;2023-07-22T10:37:33;26.80;99.90
26655;DHT22;14278;50.784;4.630;2023-07-22T10:40:25;26.70;99.90
26655;DHT22;14278;50.784;4.630;2023-07-22T10:42:54;27.70;99.90
26655;DHT22;14278;50.784;4.630;2023-07-22T10:45:30;27.40;99.90
26655;DHT22;14278;50.784;4.630;2023-07-22T10:48:11;27.80;99.90
26655;DHT22;14278;50.784;4.630;2023-07-22T10:50:40;29.40;99.90
26655;DHT22;14278;50.784;4.630;2023-07-22T10:53:10;31.00;99.90
26655;DHT22;14278;50.784;4.630;2023-07-22T10:56:11;28.90;99.90
26655;DHT22;14278;50.784;4.630;2023-07-22T11:04:10;29.00;99.90
26655;DHT22;14278;50.784;4.630;2023-07-22T11:06:52;29.00;99.90
26655;DHT22;14278;50.784;4.630;2023-07-22T11:12:01;28.20;99.90
26655;DHT22;14278;50.784;4.630;2023-07-22T11:14:35;28.60;99.90
26655;DHT22;14278;50.784;4.630;2023-07-22T11:17:04;28.30;99.90
26655;DHT22;14278;50.784;4.630;2023-07-22T11:19:30;28.30;99.90
26655;DHT22;14278;50.784;4.630;2023-07-22T11:21:57;27.50;99.90
26655;DHT22;14278;50.784;4.630;2023-07-22T11:24:24;27.60;99.90
26655;DHT22;14278;50.784;4.630;2023-07-22T11:26:51;27.40;99.90
26655;DHT22;14278;50.784;4.630;2023-07-22T11:29:17;27.10;99.90
26655;DHT22;14278;50.784;4.630;2023-07-22T11:31:45;26.40;99.90
26655;DHT22;14278;50.784;4.630;2023-07-22T11:34:12;26.30;99.90
26655;DHT22;14278;50.784;4.630;2023-07-22T11:36:38;26.50;99.90
26655;DHT22;14278;50.784;4.630;2023-07-22T11:39:09;27.30;99.90
26655;DHT22;14278;50.784;4.630;2023-07-22T11:41:36;27.20;99.90
26655;DHT22;14278;50.784;4.630;2023-07-22T11:44:03;27.40;99.90
26655;DHT22;14278;50.784;4.630;2023-07-22T11:46:35;27.60;99.90
26655;DHT22;14278;50.784;4.630;2023-07-22T11:49:02;27.10;99.90
26655;DHT22;14278;50.784;4.630;2023-07-22T11:51:28;27.50;99.90
26655;DHT22;14278;50.784;4.630;2023-07-22T11:53:55;27.50;99.90
26655;DHT22;14278;50.784;4.630;2023-07-22T11:56:26;27.10;99.90
26655;DHT22;14278;50.784;4.630;2023-07-22T11:58:54;28.00;99.90
26655;DHT22;14278;50.784;4.630;2023-07-22T12:01:20;27.80;99.90
26655;DHT22;14278;50.784;4.630;2023-07-22T12:03:46;27.60;99.90
26655;DHT22;14278;50.784;4.630;2023-07-22T12:06:12;26.70;99.90
26655;DHT22;14278;50.784;4.630;2023-07-22T12:08:46;25.70;99.90
26655;DHT22;14278;50.784;4.630;2023-07-22T12:11:17;25.70;99.90
26655;DHT22;14278;50.784;4.630;2023-07-22T12:13:44;25.90;99.90
26655;DHT22;14278;50.784;4.630;2023-07-22T12:16:21;25.90;99.90
26655;DHT22;14278;50.784;4.630;2023-07-22T12:18:49;25.50;99.90
26655;DHT22;14278;50.784;4.630;2023-07-22T12:21:15;25.30;99.90
26655;DHT22;14278;50.784;4.630;2023-07-22T12:23:42;25.00;99.90
26655;DHT22;14278;50.784;4.630;2023-07-22T12:26:08;24.50;99.90
26655;DHT22;14278;50.784;4.630;2023-07-22T12:28:34;24.50;99.90
26655;DHT22;14278;50.784;4.630;2023-07-22T12:31:00;24.00;99.90
26655;DHT22;14278;50.784;4.630;2023-07-22T12:33:26;24.40;99.90
26655;DHT22;14278;50.784;4.630;2023-07-22T12:35:54;24.50;99.90
26655;DHT22;14278;50.784;4.630;2023-07-22T12:38:20;24.00;99.90
26655;DHT22;14278;50.784;4.630;2023-07-22T12:40:46;23.90;99.90
26655;DHT22;14278;50.784;4.630;2023-07-22T12:43:11;23.90;99.90
26655;DHT22;14278;50.784;4.630;2023-07-22T12:45:37;23.80;99.90
26655;DHT22;14278;50.784;4.630;2023-07-22T12:48:03;23.80;99.90
26655;DHT22;14278;50.784;4.630;2023-07-22T12:50:31;24.00;99.90
26655;DHT22;14278;50.784;4.630;2023-07-22T12:52:57;24.10;99.90
26655;DHT22;14278;50.784;4.630;2023-07-22T12:55:23;24.40;99.90
26655;DHT22;14278;50.784;4.630;2023-07-22T12:57:49;24.30;99.90
26655;DHT22;14278;50.784;4.630;2023-07-22T13:00:16;24.40;99.90
26655;DHT22;14278;50.784;4.630;2023-07-22T13:02:42;24.40;99.90
26655;DHT22;14278;50.784;4.630;2023-07-22T13:05:08;24.50;99.90
26655;DHT22;14278;50.784;4.630;2023-07-22T13:07:34;24.60;99.90
26655;DHT22;14278;50.784;4.630;2023-07-22T13:10:00;24.40;99.90
26655;DHT22;14278;50.784;4.630;2023-07-22T13:12:29;24.20;99.90
26655;DHT22;14278;50.784;4.630;2023-07-22T13:14:55;24.10;99.90
26655;DHT22;14278;50.784;4.630;2023-07-22T13:17:21;24.30;99.90
26655;DHT22;14278;50.784;4.630;2023-07-22T13:19:47;24.00;99.90
26655;DHT22;14278;50.784;4.630;2023-07-22T13:22:12;24.20;99.90
26655;DHT22;14278;50.784;4.630;2023-07-22T13:24:39;24.20;99.90
26655;DHT22;14278;50.784;4.630;2023-07-22T13:27:05;24.10;99.90
26655;DHT22;14278;50.784;4.630;2023-07-22T13:29:31;23.90;99.90
26655;DHT22;14278;50.784;4.630;2023-07-22T13:31:57;23.50;99.90
26655;DHT22;14278;50.784;4.630;2023-07-22T13:34:22;23.80;99.90
26655;DHT22;14278;50.784;4.630;2023-07-22T13:36:49;23.80;99.90
26655;DHT22;14278;50.784;4.630;2023-07-22T13:39:15;24.00;99.90
26655;DHT22;14278;50.784;4.630;2023-07-22T13:41:41;24.00;99.90
26655;DHT22;14278;50.784;4.630;2023-07-22T13:44:06;24.30;99.90
26655;DHT22;14278;50.784;4.630;2023-07-22T13:46:32;24.00;99.90
26655;DHT22;14278;50.784;4.630;2023-07-22T13:48:58;24.10;99.90
26655;DHT22;14278;50.784;4.630;2023-07-22T13:51:24;24.10;99.90
26655;DHT22;14278;50.784;4.630;2023-07-22T13:53:50;24.30;99.90
26655;DHT22;14278;50.784;4.630;2023-07-22T13:56:17;23.90;99.90
26655;DHT22;14278;50.784;4.630;2023-07-22T13:58:43;23.80;99.90
26655;DHT22;14278;50.784;4.630;2023-07-22T14:01:09;23.60;99.90
26655;DHT22;14278;50.784;4.630;2023-07-22T14:03:35;23.80;99.90
26655;DHT22;14278;50.784;4.630;2023-07-22T14:06:01;23.60;99.90
26655;DHT22;14278;50.784;4.630;2023-07-22T14:08:27;24.10;99.90
26655;DHT22;14278;50.784;4.630;2023-07-22T14:10:52;24.50;99.90
26655;DHT22;14278;50.784;4.630;2023-07-22T14:13:19;24.30;99.90
26655;DHT22;14278;50.784;4.630;2023-07-22T14:15:45;24.10;99.90
26655;DHT22;14278;50.784;4.630;2023-07-22T14:18:10;23.90;99.90
26655;DHT22;14278;50.784;4.630;2023-07-22T14:20:36;23.80;99.90
26655;DHT22;14278;50.784;4.630;2023-07-22T14:23:02;23.50;99.90
26655;DHT22;14278;50.784;4.630;2023-07-22T14:25:30;23.40;99.90
26655;DHT22;14278;50.784;4.630;2023-07-22T14:27:56;23.20;99.90
26655;DHT22;14278;50.784;4.630;2023-07-22T14:30:21;23.20;99.90
26655;DHT22;14278;50.784;4.630;2023-07-22T14:32:47;23.20;99.90
26655;DHT22;14278;50.784;4.630;2023-07-22T14:35:13;23.10;99.90
26655;DHT22;14278;50.784;4.630;2023-07-22T14:37:39;22.80;99.90
26655;DHT22;14278;50.784;4.630;2023-07-22T14:40:06;22.60;99.90
26655;DHT22;14278;50.784;4.630;2023-07-22T14:42:34;22.60;99.90
26655;DHT22;14278;50.784;4.630;2023-07-22T14:45:00;22.60;99.90
26655;DHT22;14278;50.784;4.630;2023-07-22T14:47:25;22.60;99.90
26655;DHT22;14278;50.784;4.630;2023-07-22T14:49:52;22.70;99.90
26655;DHT22;14278;50.784;4.630;2023-07-22T14:52:17;23.20;99.90
26655;DHT22;14278;50.784;4.630;2023-07-22T14:54:43;23.50;99.90
26655;DHT22;14278;50.784;4.630;2023-07-22T14:57:09;23.70;99.90
26655;DHT22;14278;50.784;4.630;2023-07-22T14:59:35;23.70;99.90
26655;DHT22;14278;50.784;4.630;2023-07-22T15:02:01;24.00;99.90
26655;DHT22;14278;50.784;4.630;2023-07-22T15:04:27;24.30;99.90
26655;DHT22;14278;50.784;4.630;2023-07-22T15:06:52;24.40;99.90
26655;DHT22;14278;50.784;4.630;2023-07-22T15:09:18;24.00;99.90
26655;DHT22;14278;50.784;4.630;2023-07-22T15:11:44;23.80;99.90
26655;DHT22;14278;50.784;4.630;2023-07-22T15:14:10;23.90;99.90
26655;DHT22;14278;50.784;4.630;2023-07-22T15:16:36;23.80;99.90
26655;DHT22;14278;50.784;4.630;2023-07-22T15:19:02;23.90;99.90
26655;DHT22;14278;50.784;4.630;2023-07-22T15:21:27;23.80;99.90
26655;DHT22;14278;50.784;4.630;2023-07-22T15:23:54;23.70;99.90
26655;DHT22;14278;50.784;4.630;2023-07-22T15:26:20;23.60;99.90
26655;DHT22;14278;50.784;4.630;2023-07-22T15:28:46;23.30;99.90
26655;DHT22;14278;50.784;4.630;2023-07-22T15:31:13;23.20;99.90
26655;DHT22;14278;50.784;4.630;2023-07-22T15:33:39;23.20;99.90
26655;DHT22;14278;50.784;4.630;2023-07-22T15:36:05;23.40;99.90
26655;DHT22;14278;50.784;4.630;2023-07-22T15:38:31;23.40;99.90
26655;DHT22;14278;50.784;4.630;2023-07-22T15:40:57;23.20;99.90
26655;DHT22;14278;50.784;4.630;2023-07-22T15:43:23;23.30;99.90